Time;durP1;ratioP1;P1;durP2;ratioP2;P2;SDS_P1;SDS_P2;PMS_P1;PMS_P2;Temp;Humidity;BMP_temperature;BMP_pressure;BME280_temperature;BME280_humidity;BME280_pressure;Samples;Min_cycle;Max_cycle;Signal;HPM_P1;HPM_P2
2022/02/21 00:01:48;;;;;;;;;;;9.70;56.00;;;8.27;57.89;95142.50;5016693;28;19925;-66
2022/02/21 00:04:14;;;;;;;;;;;9.60;55.80;;;8.28;57.86;95129.19;5016789;28;20016;-66
2022/02/21 00:06:43;;;;;;;;;;;9.70;55.80;;;8.31;57.70;95122.75;5009960;28;19932;-66
2022/02/21 00:09:12;;;;;;;;;;;9.70;55.70;;;8.31;58.31;95114.88;5009229;28;20256;-67
2022/02/21 00:11:38;;;;;;;;;;;9.70;55.90;;;8.32;57.75;95098.16;5018425;28;19922;-66
2022/02/21 00:14:04;;;;;;;;;;;9.70;55.60;;;8.33;57.35;95106.81;5009988;28;19922;-66
2022/02/21 00:16:29;;;;;;;;;;;9.70;55.60;;;8.35;58.64;95076.03;4994390;28;19983;-66
2022/02/21 00:18:55;;;;;;;;;;;9.80;55.50;;;8.37;57.75;95079.25;5021065;28;19921;-66
2022/02/21 00:21:21;;;;;;;;;;;9.80;55.80;;;8.36;57.46;95104.63;5011817;28;20371;-65
2022/02/21 00:23:46;;;;;;;;;;;9.70;55.80;;;8.38;58.43;95081.69;5012190;28;19917;-66
2022/02/21 00:26:12;;;;;;;;;;;9.70;56.00;;;8.39;57.77;95077.25;5011628;28;19917;-66
2022/02/21 00:28:38;;;;;;;;;;;9.80;56.20;;;8.39;58.38;95079.88;4995649;28;20549;-66
2022/02/21 00:31:03;;;;;;;;;;;9.80;56.30;;;8.40;58.63;95058.72;5023104;28;19967;-66
2022/02/21 00:33:29;;;;;;;;;;;9.80;56.50;;;8.41;58.32;95076.03;5010660;28;20308;-66
2022/02/21 00:35:55;;;;;;;;;;;9.80;56.70;;;8.41;58.92;95064.75;5002949;28;19936;-66
2022/02/21 00:38:21;;;;;;;;;;;9.80;57.00;;;8.41;59.15;95028.88;4996698;28;19925;-66
2022/02/21 00:40:47;;;;;;;;;;;9.80;57.00;;;8.40;58.66;95032.50;5012041;28;20389;-66
2022/02/21 00:43:13;;;;;;;;;;;9.80;57.10;;;8.41;59.29;95054.28;5012787;28;19982;-66
2022/02/21 00:45:38;;;;;;;;;;;9.80;57.10;;;8.39;58.82;95036.13;5007713;28;19918;-66
2022/02/21 00:48:04;;;;;;;;;;;9.80;57.10;;;8.37;58.52;95032.88;5021589;28;19921;-66
2022/02/21 00:50:30;;;;;;;;;;;9.70;56.90;;;8.36;59.63;95036.50;5031563;28;19917;-66
2022/02/21 00:52:56;;;;;;;;;;;9.70;57.00;;;8.36;59.08;95023.41;5011531;28;19931;-65
2022/02/21 00:55:21;;;;;;;;;;;9.80;56.80;;;8.36;58.85;95014.75;5004699;28;19922;-65
2022/02/21 00:57:47;;;;;;;;;;;9.70;56.60;;;8.35;58.87;95024.44;5023736;28;20296;-66
2022/02/21 01:00:13;;;;;;;;;;;9.70;56.70;;;8.33;58.99;95021.16;4999328;28;19979;-66
2022/02/21 01:02:39;;;;;;;;;;;9.70;56.90;;;8.32;58.86;95014.31;5018560;28;19932;-65
2022/02/21 01:05:06;;;;;;;;;;;9.70;56.80;;;8.31;58.11;95002.22;5031201;28;19921;-66
2022/02/21 01:07:32;;;;;;;;;;;9.70;56.50;;;8.30;58.83;94995.38;5028961;28;19924;-65
2022/02/21 01:09:57;;;;;;;;;;;9.60;56.60;;;8.29;58.73;94999.00;5032212;28;19917;-65
2022/02/21 01:12:23;;;;;;;;;;;9.60;56.60;;;8.28;58.68;94986.91;5018374;28;19932;-66
2022/02/21 01:14:49;;;;;;;;;;;9.70;56.50;;;8.28;58.57;94992.97;5014216;28;20005;-66
2022/02/21 01:17:14;;;;;;;;;;;9.70;56.40;;;8.28;58.36;94992.16;5022863;28;19928;-65
2022/02/21 01:19:40;;;;;;;;;;;9.60;56.40;;;8.28;58.39;94981.69;5016917;28;20396;-66
2022/02/21 01:22:07;;;;;;;;;;;9.60;56.40;;;8.27;58.36;94964.34;5021795;28;19930;-66
2022/02/21 01:24:33;;;;;;;;;;;9.70;56.50;;;8.26;58.92;94968.78;5011546;28;19966;-66
2022/02/21 01:26:59;;;;;;;;;;;9.70;56.60;;;8.24;58.93;94952.47;5012440;28;20308;-66
2022/02/21 01:29:24;;;;;;;;;;;9.60;56.40;;;8.26;58.39;94957.50;5012315;28;19928;-67
2022/02/21 01:31:50;;;;;;;;;;;9.60;56.50;;;8.25;58.47;94945.41;5014525;28;19975;-66
2022/02/21 01:34:16;;;;;;;;;;;9.60;56.30;;;8.26;58.83;94939.16;5019117;28;19921;-66
2022/02/21 01:36:41;;;;;;;;;;;9.60;56.10;;;8.27;58.11;94935.53;5008168;28;19932;-67
2022/02/21 01:39:07;;;;;;;;;;;9.60;56.10;;;8.26;58.35;94920.81;5030137;28;19925;-66
2022/02/21 01:41:33;;;;;;;;;;;9.60;56.30;;;8.26;58.37;94910.34;5012712;28;20407;-66
2022/02/21 01:44:06;;;;;;;;;;;9.60;56.20;;;8.26;58.90;94899.88;5018022;28;19918;-66
2022/02/21 01:46:32;;;;;;;;;;;9.70;56.10;;;8.24;58.75;94910.56;5019189;28;19931;-66
2022/02/21 01:48:58;;;;;;;;;;;9.60;55.90;;;8.25;57.96;94869.44;5028205;28;19916;-66
2022/02/21 01:51:23;;;;;;;;;;;9.60;55.70;;;8.26;58.13;94878.91;5012685;28;19931;-67
2022/02/21 01:53:49;;;;;;;;;;;9.60;55.60;;;8.25;57.81;94862.41;5010312;28;19992;-65
2022/02/21 01:56:15;;;;;;;;;;;9.60;55.80;;;8.26;58.10;94844.88;5010725;28;19928;-66
2022/02/21 01:58:40;;;;;;;;;;;9.60;55.50;;;8.25;57.60;94846.69;5026099;28;20363;-66
2022/02/21 02:01:06;;;;;;;;;;;9.60;55.40;;;8.26;57.78;94834.38;4999329;28;20113;-66
2022/02/21 02:03:32;;;;;;;;;;;9.60;55.30;;;8.25;57.73;94845.88;5003728;28;20348;-67
2022/02/21 02:05:57;;;;;;;;;;;9.60;55.50;;;8.25;58.18;94838.81;5014546;28;19921;-67
2022/02/21 02:08:23;;;;;;;;;;;9.60;55.20;;;8.27;57.13;94834.19;4998481;28;19921;-66
2022/02/21 02:10:49;;;;;;;;;;;9.70;54.80;;;8.28;57.80;94842.84;4997984;28;20378;-67
2022/02/21 02:13:14;;;;;;;;;;;9.70;54.90;;;8.29;57.00;94831.34;5012297;28;19925;-67
2022/02/21 02:15:40;;;;;;;;;;;9.70;54.80;;;8.33;57.79;94822.06;5013183;28;19922;-66
2022/02/21 02:18:06;;;;;;;;;;;9.70;54.90;;;8.35;57.32;94833.16;4996808;28;19922;-67
2022/02/21 02:20:31;;;;;;;;;;;9.80;54.70;;;8.38;57.42;94813.66;4993277;28;19921;-67
2022/02/21 02:22:57;;;;;;;;;;;9.80;54.70;;;8.41;56.65;94818.47;5023835;28;19932;-67
2022/02/21 02:25:23;;;;;;;;;;;9.80;54.40;;;8.42;57.27;94810.41;5010424;28;20367;-67
2022/02/21 02:27:48;;;;;;;;;;;9.90;54.10;;;8.46;56.64;94801.09;5002190;28;19928;-67
2022/02/21 02:30:14;;;;;;;;;;;9.90;54.20;;;8.49;57.36;94792.81;5023620;28;20348;-67
2022/02/21 02:32:40;;;;;;;;;;;9.90;54.20;;;8.52;56.93;94792.41;5012349;28;19925;-67
2022/02/21 02:35:06;;;;;;;;;;;10.00;54.00;;;8.53;56.42;94770.44;5016677;28;20554;-67
2022/02/21 02:37:31;;;;;;;;;;;10.00;54.10;;;8.54;56.68;94764.16;5027541;28;20003;-67
2022/02/21 02:39:58;;;;;;;;;;;10.10;53.40;;;8.56;56.18;94748.25;5026986;28;19920;-66
2022/02/21 02:42:23;;;;;;;;;;;10.00;53.40;;;8.58;56.18;94751.44;5027276;28;20007;-67
2022/02/21 02:44:49;;;;;;;;;;;10.00;53.40;;;8.60;56.01;94744.22;4995709;28;19939;-67
2022/02/21 02:47:15;;;;;;;;;;;10.10;53.20;;;8.62;55.23;94728.28;5009594;28;19967;-67
2022/02/21 02:49:40;;;;;;;;;;;10.10;52.80;;;8.65;55.53;94736.50;5011558;28;20385;-67
2022/02/21 02:52:06;;;;;;;;;;;10.10;52.90;;;8.68;55.52;94762.31;5021736;28;20389;-67
2022/02/21 02:54:32;;;;;;;;;;;10.10;52.40;;;8.72;55.51;94725.97;5016978;28;20418;-67
2022/02/21 02:56:58;;;;;;;;;;;10.10;52.40;;;8.74;55.29;94734.44;5014693;28;19921;-67
2022/02/21 02:59:25;;;;;;;;;;;10.20;52.40;;;8.77;55.30;94734.00;5020789;28;20395;-68
2022/02/21 03:01:51;;;;;;;;;;;10.20;52.20;;;8.77;55.08;94705.97;5009592;28;19921;-67
2022/02/21 03:04:17;;;;;;;;;;;10.20;52.20;;;8.80;55.59;94712.63;5013159;28;19925;-67
2022/02/21 03:06:42;;;;;;;;;;;10.20;51.80;;;8.82;55.01;94702.72;5027773;28;19929;-67
2022/02/21 03:09:08;;;;;;;;;;;10.20;51.70;;;8.83;55.33;94696.50;5010306;28;20311;-67
2022/02/21 03:11:34;;;;;;;;;;;10.30;51.70;;;8.84;55.01;94693.66;4992760;28;19997;-67
2022/02/21 03:13:59;;;;;;;;;;;10.30;51.50;;;8.86;55.03;94698.69;5019797;28;19925;-67
2022/02/21 03:16:26;;;;;;;;;;;10.30;51.60;;;8.87;54.82;94687.97;4995071;28;19925;-67
2022/02/21 03:18:52;;;;;;;;;;;10.30;51.50;;;8.89;54.97;94685.16;4992824;28;19929;-67
2022/02/21 03:21:18;;;;;;;;;;;10.30;51.40;;;8.89;53.66;94666.78;4996061;28;20084;-67
2022/02/21 03:23:43;;;;;;;;;;;10.30;51.20;;;8.90;54.37;94608.09;5006615;28;19937;-67
2022/02/21 03:26:09;;;;;;;;;;;10.30;51.50;;;8.92;53.46;94642.75;5010477;28;19921;-67
2022/02/21 03:28:35;;;;;;;;;;;10.30;51.40;;;8.93;53.76;94639.13;5015162;28;19974;-67
2022/02/21 03:31:00;;;;;;;;;;;10.30;51.40;;;8.92;54.01;94640.13;5028088;28;19990;-67
2022/02/21 03:33:26;;;;;;;;;;;10.30;51.30;;;8.93;53.92;94648.81;4995852;28;19935;-67
2022/02/21 03:35:52;;;;;;;;;;;10.30;51.50;;;8.93;53.63;94639.13;5003420;28;19948;-67
2022/02/21 03:38:17;;;;;;;;;;;10.30;51.40;;;8.93;54.11;94633.88;5010595;28;20396;-67
2022/02/21 03:40:43;;;;;;;;;;;10.30;51.20;;;8.95;54.40;94647.56;5017727;28;20001;-67
2022/02/21 03:43:09;;;;;;;;;;;10.30;51.40;;;8.96;53.94;94619.53;5005601;28;19929;-67
2022/02/21 03:45:34;;;;;;;;;;;10.40;51.40;;;8.96;53.85;94617.72;4991726;28;19929;-72
2022/02/21 03:48:00;;;;;;;;;;;10.40;51.70;;;8.96;54.62;94616.91;5007554;28;19936;-73
2022/02/21 03:50:26;;;;;;;;;;;10.40;51.70;;;8.96;55.16;94606.41;5008767;28;19922;-70
2022/02/21 03:52:52;;;;;;;;;;;10.40;51.70;;;8.96;55.03;94617.72;5019975;28;19925;-72
2022/02/21 03:55:17;;;;;;;;;;;10.40;51.90;;;8.98;54.66;94613.06;4987204;28;19922;-67
2022/02/21 03:57:43;;;;;;;;;;;10.40;51.90;;;8.96;54.92;94599.34;5000098;28;20370;-68
2022/02/21 04:00:10;;;;;;;;;;;10.40;52.00;;;8.96;54.37;94606.41;5021522;28;19928;-68
2022/02/21 04:02:36;;;;;;;;;;;10.40;52.10;;;8.96;54.87;94604.59;4981564;28;19922;-67
2022/02/21 04:05:02;;;;;;;;;;;10.40;52.00;;;8.96;54.46;94622.16;5007513;28;19933;-67
2022/02/21 04:07:28;;;;;;;;;;;10.30;52.20;;;8.95;55.40;94610.84;4988174;28;19926;-67
2022/02/21 04:09:54;;;;;;;;;;;10.40;52.50;;;8.94;54.55;94598.78;4999621;28;20469;-67
2022/02/21 04:12:19;;;;;;;;;;;10.30;52.30;;;8.94;54.71;94592.72;4971850;28;19922;-67
2022/02/21 04:14:45;;;;;;;;;;;10.40;52.40;;;8.92;55.18;94605.25;5018628;28;19975;-67
2022/02/21 04:17:11;;;;;;;;;;;10.30;52.70;;;8.89;55.52;94616.97;4995741;28;19921;-67
2022/02/21 04:19:36;;;;;;;;;;;10.30;52.80;;;8.88;55.02;94615.38;5008460;28;19934;-67
2022/02/21 04:22:02;;;;;;;;;;;10.20;53.30;;;8.84;55.33;94587.97;5007467;28;20522;-67
2022/02/21 04:24:28;;;;;;;;;;;10.10;53.50;;;8.82;55.74;94595.22;5015443;28;19979;-67
2022/02/21 04:26:53;;;;;;;;;;;10.10;53.90;;;8.80;56.62;94629.53;4988711;28;19922;-67
2022/02/21 04:29:19;;;;;;;;;;;10.10;54.60;;;8.78;56.83;94594.06;4995066;28;20019;-67
2022/02/21 04:31:45;;;;;;;;;;;10.10;54.80;;;8.75;57.30;94602.34;5012445;28;19922;-67
2022/02/21 04:34:10;;;;;;;;;;;10.00;55.00;;;8.71;57.05;94599.38;5014823;28;19922;-67
2022/02/21 04:36:38;;;;;;;;;;;10.00;55.30;;;8.67;57.28;94629.63;5000335;28;20251;-67
2022/02/21 04:39:04;;;;;;;;;;;9.90;55.50;;;8.65;56.96;94610.72;4997696;28;20338;-68
2022/02/21 04:41:30;;;;;;;;;;;9.90;55.50;;;8.65;57.54;94588.94;5010933;28;19925;-67
2022/02/21 04:43:56;;;;;;;;;;;9.90;55.60;;;8.64;57.72;94589.97;4996682;28;19979;-67
2022/02/21 04:46:21;;;;;;;;;;;9.90;56.00;;;8.61;57.50;94598.25;4993544;28;19925;-67
2022/02/21 04:48:47;;;;;;;;;;;9.90;56.10;;;8.60;58.12;94584.34;5002084;28;19925;-68
2022/02/21 04:51:13;;;;;;;;;;;9.90;56.40;;;8.58;58.68;94599.44;5010858;28;19951;-70
2022/02/21 04:53:38;;;;;;;;;;;9.90;56.60;;;8.54;58.83;94593.84;5009734;28;20460;-71
2022/02/21 04:56:04;;;;;;;;;;;9.80;57.00;;;8.52;58.73;94600.31;5010322;28;19990;-68
2022/02/21 04:58:30;;;;;;;;;;;9.80;57.40;;;8.49;59.14;94567.47;5012242;28;20317;-68
2022/02/21 05:00:55;;;;;;;;;;;9.80;57.20;;;8.46;58.53;94543.53;4994941;28;19917;-68
2022/02/21 05:03:21;;;;;;;;;;;9.70;57.60;;;8.43;58.88;94560.47;5010901;28;20407;-68
2022/02/21 05:05:47;;;;;;;;;;;9.70;57.90;;;8.40;59.52;94552.25;5021974;28;19925;-68
2022/02/21 05:08:12;;;;;;;;;;;9.70;58.10;;;8.36;59.61;94549.22;5031025;28;19917;-68
2022/02/21 05:10:38;;;;;;;;;;;9.70;58.60;;;8.33;60.38;94526.03;5014367;28;19917;-68
2022/02/21 05:13:04;;;;;;;;;;;9.60;59.90;;;8.26;62.32;94541.00;5014594;28;19929;-68
2022/02/21 05:15:29;;;;;;;;;;;9.50;60.80;;;8.20;62.23;94534.00;5010237;28;20286;-68
2022/02/21 05:17:55;;;;;;;;;;;9.40;61.40;;;8.14;62.76;94532.22;5010562;28;19922;-68
2022/02/21 05:20:21;;;;;;;;;;;9.30;61.80;;;8.09;62.17;94484.94;4985107;28;20050;-68
2022/02/21 05:22:46;;;;;;;;;;;9.30;62.00;;;8.03;62.92;94525.06;5014394;28;19927;-68
2022/02/21 05:25:12;;;;;;;;;;;9.20;62.40;;;8.01;63.09;94525.28;5013281;28;19917;-68
2022/02/21 05:27:39;;;;;;;;;;;9.20;62.10;;;7.97;62.93;94526.72;5010775;28;19947;-68
2022/02/21 05:30:05;;;;;;;;;;;9.20;62.10;;;7.96;62.77;94523.28;4994397;28;19924;-68
2022/02/21 05:32:31;;;;;;;;;;;9.30;61.80;;;7.95;63.34;94531.38;5010767;28;20352;-68
2022/02/21 05:34:56;;;;;;;;;;;9.20;61.60;;;7.93;63.16;94531.56;5011369;28;19922;-68
2022/02/21 05:37:22;;;;;;;;;;;9.30;61.60;;;7.92;62.35;94532.59;5031815;28;19917;-68
2022/02/21 05:39:48;;;;;;;;;;;9.20;61.20;;;7.93;63.08;94523.72;5030281;28;20383;-68
2022/02/21 05:42:14;;;;;;;;;;;9.30;61.20;;;7.93;63.65;94513.25;5013922;28;19921;-68
2022/02/21 05:44:40;;;;;;;;;;;9.30;62.50;;;7.89;63.78;94561.78;4990445;28;19917;-68
2022/02/21 05:47:06;;;;;;;;;;;9.20;63.80;;;7.88;66.38;94693.69;5013184;28;19921;-68
2022/02/21 05:49:32;;;;;;;;;;;9.10;65.70;;;7.42;66.51;94748.72;5012170;28;19964;-68
2022/02/21 05:52:01;;;;;;;;;;;7.70;70.30;;;6.84;67.16;94752.94;4995748;28;19933;-68
2022/02/21 05:54:26;;;;;;;;;;;6.90;71.20;;;6.19;69.56;94765.59;5010272;28;19976;-68
2022/02/21 05:56:52;;;;;;;;;;;6.20;74.70;;;5.64;72.14;94775.06;5010376;28;19925;-67
2022/02/21 05:59:18;;;;;;;;;;;5.90;76.30;;;5.26;71.87;94799.88;4994269;28;19917;-67
2022/02/21 06:01:43;;;;;;;;;;;5.60;77.20;;;4.91;72.82;94805.75;4996476;28;19949;-67
2022/02/21 06:04:09;;;;;;;;;;;5.40;77.90;;;4.54;74.73;94801.59;5029924;28;19917;-67
2022/02/21 06:06:35;;;;;;;;;;;5.10;78.70;;;4.28;75.01;94816.88;5002714;28;19921;-66
2022/02/21 06:09:01;;;;;;;;;;;4.90;78.60;;;3.98;74.66;94831.69;5010383;28;19917;-67
2022/02/21 06:11:27;;;;;;;;;;;4.50;79.10;;;3.71;75.41;94825.31;5010762;28;19925;-67
2022/02/21 06:13:53;;;;;;;;;;;4.40;79.30;;;3.47;77.44;94839.38;5013288;28;20376;-67
2022/02/21 06:16:19;;;;;;;;;;;4.20;80.40;;;3.26;76.22;94852.22;5030924;28;20343;-67
2022/02/21 06:18:44;;;;;;;;;;;4.00;80.40;;;3.10;75.99;94841.94;5031507;28;19917;-67
2022/02/21 06:21:10;;;;;;;;;;;3.90;80.30;;;2.94;77.92;94856.66;5024178;28;20266;-68
2022/02/21 06:23:36;;;;;;;;;;;3.80;80.20;;;2.84;75.74;94831.88;5010148;28;19917;-67
2022/02/21 06:26:02;;;;;;;;;;;3.80;80.40;;;2.78;78.32;94863.75;5009183;28;19933;-67
2022/02/21 06:28:28;;;;;;;;;;;3.90;80.30;;;2.71;78.40;94853.22;5010042;28;19924;-67
2022/02/21 06:30:54;;;;;;;;;;;3.80;80.10;;;2.63;78.28;94845.47;5014124;28;19925;-67
2022/02/21 06:33:20;;;;;;;;;;;3.70;80.10;;;2.57;79.54;94851.34;5030942;28;20389;-67
2022/02/21 06:35:45;;;;;;;;;;;3.60;81.00;;;2.50;78.77;94853.03;5012066;28;19917;-67
2022/02/21 06:38:11;;;;;;;;;;;3.60;80.00;;;2.45;77.63;94843.94;4993336;28;19918;-67
2022/02/21 06:40:37;;;;;;;;;;;3.60;80.20;;;2.45;78.82;94841.34;5009787;28;19976;-67
2022/02/21 06:43:04;;;;;;;;;;;3.70;79.60;;;2.45;78.02;94849.13;5021639;28;21172;-67
2022/02/21 06:45:30;;;;;;;;;;;3.70;79.60;;;2.44;78.23;94855.28;5016855;28;19917;-67
2022/02/21 06:47:56;;;;;;;;;;;3.70;78.90;;;2.45;76.72;94851.72;5018890;28;19962;-69
2022/02/21 06:50:22;;;;;;;;;;;3.80;78.20;;;2.45;75.77;94849.13;5029061;28;20412;-67
2022/02/21 06:52:48;;;;;;;;;;;3.70;77.90;;;2.49;77.44;94853.97;5028642;28;20415;-67
2022/02/21 06:55:14;;;;;;;;;;;3.90;77.60;;;2.55;77.36;94837.75;5012141;28;19921;-67
2022/02/21 06:57:43;;;;;;;;;;;3.90;77.10;;;2.55;75.61;94838.56;5012372;28;19917;-67
2022/02/21 07:00:09;;;;;;;;;;;3.90;76.80;;;2.56;76.08;94860.94;5012530;28;19917;-67
2022/02/21 07:02:34;;;;;;;;;;;4.00;76.00;;;2.59;76.12;94864.97;4996742;28;20297;-67
2022/02/21 07:05:00;;;;;;;;;;;4.00;76.20;;;2.63;75.63;94872.25;5010363;28;19924;-67
2022/02/21 07:07:26;;;;;;;;;;;4.10;75.60;;;2.65;75.08;94879.84;5020018;28;19973;-68
2022/02/21 07:09:51;;;;;;;;;;;4.00;74.90;;;2.66;74.71;94878.88;5012097;28;19923;-66
2022/02/21 07:12:17;;;;;;;;;;;4.10;74.30;;;2.69;73.67;94896.69;5029344;28;19929;-67
2022/02/21 07:14:43;;;;;;;;;;;4.10;73.70;;;2.70;73.86;94885.34;5027628;28;19917;-66
2022/02/21 07:17:09;;;;;;;;;;;4.10;74.30;;;2.71;74.52;94905.13;5012154;28;19983;-66
2022/02/21 07:19:35;;;;;;;;;;;4.10;74.40;;;2.72;73.88;94932.75;5013150;28;19925;-66
2022/02/21 07:22:00;;;;;;;;;;;4.10;74.00;;;2.74;73.33;94930.78;5008204;28;20321;-66
2022/02/21 07:24:26;;;;;;;;;;;4.20;73.40;;;2.73;73.20;94934.34;4992872;28;19925;-66
2022/02/21 07:26:52;;;;;;;;;;;4.10;72.60;;;2.75;72.53;94932.41;5010926;28;19917;-66
2022/02/21 07:29:18;;;;;;;;;;;4.20;72.40;;;2.79;72.58;94944.06;5028618;28;19921;-66
2022/02/21 07:31:43;;;;;;;;;;;4.40;72.60;;;2.80;72.14;94945.66;5028860;28;19927;-66
2022/02/21 07:34:09;;;;;;;;;;;4.20;71.60;;;2.84;73.06;94946.94;5029131;28;19928;-66
2022/02/21 07:36:35;;;;;;;;;;;4.40;72.10;;;2.87;71.83;94954.41;5029220;28;19943;-66
2022/02/21 07:39:04;;;;;;;;;;;4.40;71.40;;;2.90;71.91;94967.03;4994472;28;19928;-66
2022/02/21 07:41:29;;;;;;;;;;;4.50;71.00;;;2.90;71.71;94956.66;4993529;28;19968;-66
2022/02/21 07:43:55;;;;;;;;;;;4.40;71.10;;;2.90;71.91;94981.81;4992827;28;20296;-67
2022/02/21 07:46:21;;;;;;;;;;;4.40;71.30;;;2.87;71.78;94985.56;4994461;28;19928;-66
2022/02/21 07:48:46;;;;;;;;;;;4.30;71.50;;;2.85;72.30;95005.69;5025406;28;20364;-67
2022/02/21 07:51:12;;;;;;;;;;;4.30;72.00;;;2.84;73.15;95004.06;5029086;28;19923;-67
2022/02/21 07:53:38;;;;;;;;;;;4.40;72.80;;;2.85;73.16;95042.06;5029665;28;19925;-67
2022/02/21 07:56:04;;;;;;;;;;;4.30;72.40;;;2.83;73.37;95035.41;4995503;28;19917;-67
2022/02/21 07:58:29;;;;;;;;;;;4.30;73.00;;;2.83;72.73;95051.00;5031269;28;19917;-68
2022/02/21 08:00:55;;;;;;;;;;;4.30;72.70;;;2.81;73.43;95081.50;5001707;28;20415;-68
2022/02/21 08:03:21;;;;;;;;;;;4.20;73.00;;;2.81;72.66;95066.75;4996886;28;19921;-68
2022/02/21 08:05:46;;;;;;;;;;;4.30;72.60;;;2.79;72.64;95073.88;5012637;28;19921;-68
2022/02/21 08:08:12;;;;;;;;;;;4.20;73.40;;;2.79;72.64;95086.88;5020625;28;19925;-68
2022/02/21 08:10:38;;;;;;;;;;;4.20;73.00;;;2.77;73.35;95075.84;4999675;28;19922;-67
2022/02/21 08:13:03;;;;;;;;;;;4.20;73.00;;;2.80;72.74;95069.50;5013096;28;19969;-68
2022/02/21 08:15:29;;;;;;;;;;;4.40;72.70;;;2.85;73.29;95047.25;5012835;28;19924;-67
2022/02/21 08:17:55;;;;;;;;;;;4.60;72.30;;;2.92;73.20;95058.56;5013804;28;20340;-67
2022/02/21 08:20:24;;;;;;;;;;;4.70;71.80;;;3.00;72.58;95065.56;5012833;28;20040;-67
2022/02/21 08:22:50;;;;;;;;;;;4.80;70.90;;;3.07;72.69;95098.47;4999116;28;19921;-67
2022/02/21 08:25:16;;;;;;;;;;;4.80;70.80;;;3.12;71.51;95100.56;5032338;28;20008;-67
2022/02/21 08:27:42;;;;;;;;;;;4.80;70.10;;;3.13;71.45;95135.16;5032280;28;19917;-68
2022/02/21 08:30:10;;;;;;;;;;;4.70;70.40;;;3.11;71.56;95160.47;5006410;28;19921;-68
2022/02/21 08:32:36;;;;;;;;;;;4.60;70.70;;;3.11;72.10;95181.28;5009399;28;19980;-67
2022/02/21 08:35:02;;;;;;;;;;;4.70;71.50;;;3.15;71.88;95182.56;5009283;28;19921;-67
2022/02/21 08:37:27;;;;;;;;;;;4.80;71.00;;;3.18;71.46;95184.84;5009230;28;19926;-67
2022/02/21 08:39:53;;;;;;;;;;;4.80;69.90;;;3.17;71.26;95185.78;4998769;28;19922;-67
2022/02/21 08:42:19;;;;;;;;;;;4.60;70.40;;;3.13;71.19;95179.31;5015429;28;20020;-68
2022/02/21 08:44:44;;;;;;;;;;;4.60;70.20;;;3.17;71.78;95180.59;5032068;28;20336;-67
2022/02/21 08:47:10;;;;;;;;;;;4.70;69.60;;;3.23;71.59;95172.16;4999987;28;19917;-67
2022/02/21 08:49:36;;;;;;;;;;;4.90;69.50;;;3.33;71.46;95177.97;5032452;28;19917;-67
2022/02/21 08:52:02;;;;;;;;;;;5.10;69.10;;;3.42;71.22;95199.56;5031047;28;19921;-67
2022/02/21 08:54:27;;;;;;;;;;;5.20;68.60;;;3.44;70.86;95201.03;5002856;28;19933;-67
2022/02/21 08:56:53;;;;;;;;;;;5.10;68.60;;;3.54;70.96;95214.63;5017172;28;19928;-67
2022/02/21 08:59:19;;;;;;;;;;;5.40;67.90;;;3.69;70.70;95243.34;5015188;28;20445;-67
2022/02/21 09:01:45;;;;;;;;;;;5.80;66.80;;;3.81;69.30;95249.81;5031257;28;19940;-68
2022/02/21 09:04:11;;;;;;;;;;;5.80;65.10;;;3.93;67.85;95245.06;4998830;28;19955;-67
2022/02/21 09:06:37;;;;;;;;;;;5.80;64.30;;;4.05;67.69;95233.28;5015270;28;19921;-67
2022/02/21 09:09:03;;;;;;;;;;;6.00;63.30;;;4.16;67.13;95230.31;5010811;28;20381;-67
2022/02/21 09:11:29;;;;;;;;;;;6.10;62.70;;;4.28;66.80;95233.34;5002884;28;19925;-67
2022/02/21 09:13:54;;;;;;;;;;;6.20;62.20;;;4.38;65.14;95222.72;5011328;28;19944;-67
2022/02/21 09:16:20;;;;;;;;;;;6.20;60.90;;;4.41;65.25;95222.38;5012715;28;19967;-68
2022/02/21 09:18:46;;;;;;;;;;;6.20;60.20;;;4.52;65.28;95229.78;5013264;28;19924;-67
2022/02/21 09:21:11;;;;;;;;;;;6.60;60.20;;;4.65;65.13;95255.25;5011609;28;19917;-67
2022/02/21 09:23:37;;;;;;;;;;;6.70;60.10;;;4.73;64.75;95232.56;5021386;28;20384;-67
2022/02/21 09:26:03;;;;;;;;;;;6.80;59.20;;;4.73;63.47;95237.75;5030725;28;19917;-67
2022/02/21 09:28:29;;;;;;;;;;;6.40;59.10;;;4.67;64.11;95233.25;5031483;28;20384;-68
2022/02/21 09:30:55;;;;;;;;;;;6.30;59.80;;;4.66;63.74;95242.06;5010390;28;19951;-67
2022/02/21 09:33:24;;;;;;;;;;;6.20;59.60;;;4.58;64.39;95231.69;5011377;28;20474;-66
2022/02/21 09:35:50;;;;;;;;;;;6.10;60.50;;;4.60;64.49;95227.13;4994778;28;19921;-67
2022/02/21 09:38:16;;;;;;;;;;;6.30;60.20;;;4.59;64.64;95238.53;5022943;28;19921;-66
2022/02/21 09:40:42;;;;;;;;;;;6.20;60.40;;;4.61;64.44;95239.16;5031455;28;19924;-66
2022/02/21 09:43:08;;;;;;;;;;;6.50;59.80;;;4.62;63.13;95243.38;5015054;28;19921;-66
2022/02/21 09:45:35;;;;;;;;;;;6.30;58.90;;;4.61;63.88;95220.94;5010370;28;19921;-67
2022/02/21 09:48:01;;;;;;;;;;;6.20;59.70;;;4.57;63.77;95224.88;4994464;28;19957;-67
2022/02/21 09:50:27;;;;;;;;;;;6.20;59.80;;;4.56;64.11;95257.13;4994604;28;20381;-69
2022/02/21 09:52:54;;;;;;;;;;;6.10;60.40;;;4.52;64.47;95250.59;5020402;28;19932;-68
2022/02/21 09:55:20;;;;;;;;;;;6.10;61.40;;;4.47;64.27;95260.72;5014358;28;19949;-68
2022/02/21 09:57:46;;;;;;;;;;;5.90;61.10;;;4.42;63.53;95263.84;5014122;28;19921;-68
2022/02/21 10:00:12;;;;;;;;;;;5.90;60.40;;;4.40;63.94;95258.00;5014052;28;19917;-68
2022/02/21 10:02:38;;;;;;;;;;;5.90;60.70;;;4.43;63.60;95247.25;5030747;28;19932;-69
2022/02/21 10:05:25;;;;;;;;;;;6.10;59.80;;;4.55;63.28;95250.28;5013941;28;19917;-68
2022/02/21 10:07:51;;;;;;;;;;;6.50;58.30;;;4.88;62.93;95248.25;5018981;28;20011;-68
2022/02/21 10:10:18;;;;;;;;;;;9.30;52.10;;;5.45;62.59;95248.59;4999999;28;19921;-68
2022/02/21 10:12:54;;;;;;;;;;;10.30;48.60;;;5.93;61.48;95241.25;5030553;28;19969;-68
2022/02/21 10:15:25;;;;;;;;;;;9.50;49.50;;;6.14;60.15;95246.53;5014469;28;19925;-69
2022/02/21 10:17:51;;;;;;;;;;;8.90;50.30;;;6.21;60.37;95245.81;5014342;28;19952;-68
2022/02/21 10:20:17;;;;;;;;;;;8.30;52.70;;;6.17;59.66;95247.97;5013730;28;20385;-69
2022/02/21 10:23:00;;;;;;;;;;;7.90;53.20;;;6.02;58.84;95250.59;5005711;28;19921;-69
2022/02/21 10:25:25;;;;;;;;;;;7.60;54.20;;;5.89;59.89;95244.38;5010137;28;19944;-67
2022/02/21 10:27:51;;;;;;;;;;;7.40;55.20;;;5.74;59.68;95255.63;4993639;28;19918;-67
2022/02/21 10:30:17;;;;;;;;;;;7.30;55.40;;;5.66;59.89;95250.50;5011597;28;19921;-67
2022/02/21 10:32:43;;;;;;;;;;;7.30;55.00;;;5.68;60.40;95216.41;5010256;28;19921;-67
2022/02/21 10:35:16;;;;;;;;;;;7.80;54.40;;;5.88;60.46;95219.25;4993576;28;19939;-67
2022/02/21 10:37:46;;;;;;;;;;;8.90;52.70;;;6.13;60.23;95216.22;5021029;28;19928;-67
2022/02/21 10:40:19;;;;;;;;;;;8.80;52.10;;;6.25;59.20;95226.16;5013582;28;19925;-67
2022/02/21 10:43:00;;;;;;;;;;;8.50;52.20;;;6.22;59.18;95214.28;5013873;28;20274;-67
2022/02/21 10:45:28;;;;;;;;;;;8.10;52.80;;;6.17;58.46;95228.88;5028886;28;20300;-67
2022/02/21 10:48:06;;;;;;;;;;;7.80;53.50;;;6.04;58.48;95250.41;5009626;28;19964;-67
2022/02/21 10:50:34;;;;;;;;;;;7.40;54.40;;;5.87;57.72;95228.88;4974176;28;19921;-67
2022/02/21 10:53:06;;;;;;;;;;;7.10;53.90;;;5.74;58.38;95231.31;4991366;28;20340;-66
2022/02/21 10:55:33;;;;;;;;;;;7.10;54.20;;;5.65;57.60;95222.75;5006356;28;19918;-67
2022/02/21 10:57:58;;;;;;;;;;;7.00;53.80;;;5.64;58.91;95217.72;5006115;28;19975;-66
2022/02/21 11:00:24;;;;;;;;;;;7.20;55.20;;;5.61;58.43;95218.91;4990236;28;19922;-66
2022/02/21 11:02:50;;;;;;;;;;;7.10;54.30;;;5.54;58.65;95207.56;5006978;28;19918;-67
2022/02/21 11:05:16;;;;;;;;;;;7.00;54.50;;;5.47;58.30;95210.09;4992117;28;19918;-66
2022/02/21 11:07:41;;;;;;;;;;;6.80;55.30;;;5.38;57.92;95203.31;4996240;28;19917;-66
2022/02/21 11:10:09;;;;;;;;;;;6.80;55.10;;;5.36;58.71;95207.09;5030695;28;19937;-66
2022/02/21 11:12:37;;;;;;;;;;;6.80;55.30;;;5.33;58.79;95205.66;5030661;28;20273;-66
2022/02/21 11:15:04;;;;;;;;;;;6.90;54.70;;;5.35;59.29;95205.47;5029376;28;20004;-66
2022/02/21 11:17:30;;;;;;;;;;;6.90;54.90;;;5.41;58.80;95195.13;5030812;28;19921;-66
2022/02/21 11:19:56;;;;;;;;;;;7.20;54.60;;;5.44;57.79;95189.59;4994814;28;20051;-66
2022/02/21 11:22:22;;;;;;;;;;;7.10;54.00;;;5.47;58.65;95202.28;4992902;28;20564;-67
2022/02/21 11:24:52;;;;;;;;;;;7.20;53.50;;;5.49;58.38;95191.66;5010573;28;19931;-66
2022/02/21 11:27:30;;;;;;;;;;;7.30;53.90;;;5.54;59.59;95190.13;4993303;28;20403;-66